Miami, New Mexico
Current Conditions -  °F | °C
As of 8:15 PM on Friday 21 Nov 2014 (Local Time) from KAXX Reporting Station
Clear Clear  
Wind Chill: 17°   Ceiling: Unl
Heat Index: 17°   Visibility: 10mi
Dew Point: 12°   Wind: 0mph
Humidity: 82%   Direction: NA
Pressure: 30.12"   Gusts: NA
Location:  36.35°N, 104.8°W
Report Text: KAXX 220315Z AUTO 00000KT 10SM CLR M08/M11 A3012 RMK AO2 T10841109
Loading
Personal Weather Stations






























Interactive Weather Map New forecast layout! Learn more

10-Day Weather Forecast

Advertisements
Track Severe Weather on mobile